sensor_id;sensor_type;location;lat;lon;timestamp;P1;durP1;ratioP1;P2;durP2;ratioP2
35969;SDS011;22448;51.298;6.430;2024-02-26T00:00:19;4.60;;;2.60;;
35969;SDS011;22448;51.298;6.430;2024-02-26T00:02:46;5.55;;;2.40;;
35969;SDS011;22448;51.298;6.430;2024-02-26T00:05:15;6.40;;;2.10;;
35969;SDS011;22448;51.298;6.430;2024-02-26T00:07:42;5.43;;;2.13;;
35969;SDS011;22448;51.298;6.430;2024-02-26T00:10:10;7.38;;;2.47;;
35969;SDS011;22448;51.298;6.430;2024-02-26T00:12:37;4.25;;;2.08;;
35969;SDS011;22448;51.298;6.430;2024-02-26T00:15:08;4.82;;;2.20;;
35969;SDS011;22448;51.298;6.430;2024-02-26T00:17:36;3.78;;;2.40;;
35969;SDS011;22448;51.298;6.430;2024-02-26T00:20:04;5.03;;;2.17;;
35969;SDS011;22448;51.298;6.430;2024-02-26T00:22:35;4.85;;;2.40;;
35969;SDS011;22448;51.298;6.430;2024-02-26T00:25:03;5.45;;;2.60;;
35969;SDS011;22448;51.298;6.430;2024-02-26T00:27:31;8.32;;;2.22;;
35969;SDS011;22448;51.298;6.430;2024-02-26T00:29:58;7.03;;;2.20;;
35969;SDS011;22448;51.298;6.430;2024-02-26T00:32:25;3.63;;;2.15;;
35969;SDS011;22448;51.298;6.430;2024-02-26T00:34:52;5.88;;;2.67;;
35969;SDS011;22448;51.298;6.430;2024-02-26T00:37:19;4.32;;;2.42;;
35969;SDS011;22448;51.298;6.430;2024-02-26T00:39:46;3.83;;;2.20;;
35969;SDS011;22448;51.298;6.430;2024-02-26T00:42:13;7.05;;;2.08;;
35969;SDS011;22448;51.298;6.430;2024-02-26T00:44:41;4.43;;;1.80;;
35969;SDS011;22448;51.298;6.430;2024-02-26T00:47:08;4.60;;;2.35;;
35969;SDS011;22448;51.298;6.430;2024-02-26T00:49:35;4.32;;;1.88;;
35969;SDS011;22448;51.298;6.430;2024-02-26T00:52:02;4.25;;;1.88;;
35969;SDS011;22448;51.298;6.430;2024-02-26T00:54:29;3.55;;;1.85;;
35969;SDS011;22448;51.298;6.430;2024-02-26T00:56:56;6.25;;;2.10;;
35969;SDS011;22448;51.298;6.430;2024-02-26T00:59:24;6.05;;;2.50;;
35969;SDS011;22448;51.298;6.430;2024-02-26T01:01:51;6.55;;;2.70;;
35969;SDS011;22448;51.298;6.430;2024-02-26T01:04:18;4.75;;;2.67;;
35969;SDS011;22448;51.298;6.430;2024-02-26T01:06:45;4.93;;;2.30;;
35969;SDS011;22448;51.298;6.430;2024-02-26T01:09:12;4.18;;;2.20;;
35969;SDS011;22448;51.298;6.430;2024-02-26T01:11:39;5.22;;;2.42;;
35969;SDS011;22448;51.298;6.430;2024-02-26T01:14:06;6.63;;;2.75;;
35969;SDS011;22448;51.298;6.430;2024-02-26T01:16:33;5.32;;;2.70;;
35969;SDS011;22448;51.298;6.430;2024-02-26T01:19:01;5.88;;;2.05;;
35969;SDS011;22448;51.298;6.430;2024-02-26T01:21:28;4.05;;;2.28;;
35969;SDS011;22448;51.298;6.430;2024-02-26T01:23:56;2.88;;;2.10;;
35969;SDS011;22448;51.298;6.430;2024-02-26T01:26:23;4.70;;;2.08;;
35969;SDS011;22448;51.298;6.430;2024-02-26T01:28:50;4.18;;;2.55;;
35969;SDS011;22448;51.298;6.430;2024-02-26T01:31:17;7.05;;;2.17;;
35969;SDS011;22448;51.298;6.430;2024-02-26T01:33:45;6.07;;;2.05;;
35969;SDS011;22448;51.298;6.430;2024-02-26T01:36:12;7.05;;;2.53;;
35969;SDS011;22448;51.298;6.430;2024-02-26T01:38:39;4.53;;;2.47;;
35969;SDS011;22448;51.298;6.430;2024-02-26T01:41:06;4.10;;;2.80;;
35969;SDS011;22448;51.298;6.430;2024-02-26T01:43:33;7.63;;;3.80;;
35969;SDS011;22448;51.298;6.430;2024-02-26T01:46:00;4.97;;;2.85;;
35969;SDS011;22448;51.298;6.430;2024-02-26T01:48:27;7.70;;;3.65;;
35969;SDS011;22448;51.298;6.430;2024-02-26T01:50:55;9.02;;;3.42;;
35969;SDS011;22448;51.298;6.430;2024-02-26T01:53:22;5.18;;;3.10;;
35969;SDS011;22448;51.298;6.430;2024-02-26T01:55:50;6.60;;;2.78;;
35969;SDS011;22448;51.298;6.430;2024-02-26T01:58:17;6.28;;;2.60;;
35969;SDS011;22448;51.298;6.430;2024-02-26T02:00:44;6.72;;;3.17;;
35969;SDS011;22448;51.298;6.430;2024-02-26T02:03:12;7.55;;;2.80;;
35969;SDS011;22448;51.298;6.430;2024-02-26T02:05:39;4.70;;;2.58;;
35969;SDS011;22448;51.298;6.430;2024-02-26T02:08:10;8.00;;;2.40;;
35969;SDS011;22448;51.298;6.430;2024-02-26T02:10:43;3.13;;;2.08;;
35969;SDS011;22448;51.298;6.430;2024-02-26T02:13:14;4.35;;;2.55;;
35969;SDS011;22448;51.298;6.430;2024-02-26T02:15:41;4.60;;;2.25;;
35969;SDS011;22448;51.298;6.430;2024-02-26T02:18:09;4.05;;;2.10;;
35969;SDS011;22448;51.298;6.430;2024-02-26T02:20:37;3.17;;;1.65;;
35969;SDS011;22448;51.298;6.430;2024-02-26T02:23:04;4.50;;;1.80;;
35969;SDS011;22448;51.298;6.430;2024-02-26T02:25:31;2.95;;;1.52;;
35969;SDS011;22448;51.298;6.430;2024-02-26T02:27:58;3.08;;;1.50;;
35969;SDS011;22448;51.298;6.430;2024-02-26T02:30:26;6.07;;;2.30;;
35969;SDS011;22448;51.298;6.430;2024-02-26T02:32:56;3.80;;;2.00;;
35969;SDS011;22448;51.298;6.430;2024-02-26T02:35:25;7.60;;;3.25;;
35969;SDS011;22448;51.298;6.430;2024-02-26T02:37:52;8.90;;;3.00;;
35969;SDS011;22448;51.298;6.430;2024-02-26T02:40:19;13.77;;;3.50;;
35969;SDS011;22448;51.298;6.430;2024-02-26T02:42:46;6.13;;;2.67;;
35969;SDS011;22448;51.298;6.430;2024-02-26T02:45:13;5.93;;;2.80;;
35969;SDS011;22448;51.298;6.430;2024-02-26T02:47:40;8.13;;;3.05;;
35969;SDS011;22448;51.298;6.430;2024-02-26T02:50:08;8.27;;;3.58;;
35969;SDS011;22448;51.298;6.430;2024-02-26T02:52:35;8.43;;;3.45;;
35969;SDS011;22448;51.298;6.430;2024-02-26T02:55:03;7.97;;;3.70;;
35969;SDS011;22448;51.298;6.430;2024-02-26T02:57:30;7.80;;;3.60;;
35969;SDS011;22448;51.298;6.430;2024-02-26T02:59:58;13.25;;;4.65;;
35969;SDS011;22448;51.298;6.430;2024-02-26T03:02:25;11.25;;;4.68;;
35969;SDS011;22448;51.298;6.430;2024-02-26T03:04:52;7.70;;;3.90;;
35969;SDS011;22448;51.298;6.430;2024-02-26T03:07:19;15.60;;;5.45;;
35969;SDS011;22448;51.298;6.430;2024-02-26T03:09:46;5.80;;;3.55;;
35969;SDS011;22448;51.298;6.430;2024-02-26T03:12:13;5.72;;;3.33;;
35969;SDS011;22448;51.298;6.430;2024-02-26T03:14:40;5.93;;;3.28;;
35969;SDS011;22448;51.298;6.430;2024-02-26T03:17:08;8.45;;;4.18;;
35969;SDS011;22448;51.298;6.430;2024-02-26T03:19:35;14.30;;;5.05;;
35969;SDS011;22448;51.298;6.430;2024-02-26T03:22:02;13.57;;;6.15;;
35969;SDS011;22448;51.298;6.430;2024-02-26T03:24:29;11.48;;;5.00;;
35969;SDS011;22448;51.298;6.430;2024-02-26T03:26:57;11.15;;;4.30;;
35969;SDS011;22448;51.298;6.430;2024-02-26T03:29:24;5.40;;;3.72;;
35969;SDS011;22448;51.298;6.430;2024-02-26T03:31:51;8.52;;;4.03;;
35969;SDS011;22448;51.298;6.430;2024-02-26T03:34:18;6.30;;;3.67;;
35969;SDS011;22448;51.298;6.430;2024-02-26T03:36:47;7.45;;;3.63;;
35969;SDS011;22448;51.298;6.430;2024-02-26T03:39:14;4.75;;;3.28;;
35969;SDS011;22448;51.298;6.430;2024-02-26T03:41:41;6.78;;;3.58;;
35969;SDS011;22448;51.298;6.430;2024-02-26T03:44:08;8.15;;;3.92;;
35969;SDS011;22448;51.298;6.430;2024-02-26T03:46:35;4.40;;;3.25;;
35969;SDS011;22448;51.298;6.430;2024-02-26T03:49:02;6.63;;;3.38;;
35969;SDS011;22448;51.298;6.430;2024-02-26T03:51:30;5.55;;;3.00;;
35969;SDS011;22448;51.298;6.430;2024-02-26T03:53:58;7.20;;;2.63;;
35969;SDS011;22448;51.298;6.430;2024-02-26T03:56:26;4.22;;;2.65;;
35969;SDS011;22448;51.298;6.430;2024-02-26T03:58:53;5.75;;;2.60;;
35969;SDS011;22448;51.298;6.430;2024-02-26T08:00:22;18.70;;;10.55;;
35969;SDS011;22448;51.298;6.430;2024-02-26T08:02:50;21.10;;;9.90;;
35969;SDS011;22448;51.298;6.430;2024-02-26T08:05:17;17.42;;;9.82;;
35969;SDS011;22448;51.298;6.430;2024-02-26T08:07:44;15.45;;;10.32;;
35969;SDS011;22448;51.298;6.430;2024-02-26T08:10:11;16.63;;;10.48;;
35969;SDS011;22448;51.298;6.430;2024-02-26T08:12:38;17.10;;;10.40;;
35969;SDS011;22448;51.298;6.430;2024-02-26T08:15:05;17.63;;;10.10;;
35969;SDS011;22448;51.298;6.430;2024-02-26T08:17:33;17.50;;;9.93;;
35969;SDS011;22448;51.298;6.430;2024-02-26T08:20:01;15.38;;;10.38;;
35969;SDS011;22448;51.298;6.430;2024-02-26T08:22:29;16.15;;;11.23;;
35969;SDS011;22448;51.298;6.430;2024-02-26T08:24:56;15.98;;;10.50;;
35969;SDS011;22448;51.298;6.430;2024-02-26T08:27:23;22.85;;;12.43;;
35969;SDS011;22448;51.298;6.430;2024-02-26T08:29:51;20.52;;;12.30;;
35969;SDS011;22448;51.298;6.430;2024-02-26T08:32:18;20.83;;;12.05;;
35969;SDS011;22448;51.298;6.430;2024-02-26T08:34:46;18.65;;;12.30;;
35969;SDS011;22448;51.298;6.430;2024-02-26T08:37:13;21.00;;;12.48;;
35969;SDS011;22448;51.298;6.430;2024-02-26T08:39:40;17.95;;;11.85;;
35969;SDS011;22448;51.298;6.430;2024-02-26T08:42:07;18.10;;;12.43;;
35969;SDS011;22448;51.298;6.430;2024-02-26T08:44:34;19.75;;;12.52;;
35969;SDS011;22448;51.298;6.430;2024-02-26T08:47:01;22.80;;;12.35;;
35969;SDS011;22448;51.298;6.430;2024-02-26T08:49:29;15.30;;;10.15;;
35969;SDS011;22448;51.298;6.430;2024-02-26T08:51:56;18.38;;;11.52;;
35969;SDS011;22448;51.298;6.430;2024-02-26T08:54:23;23.35;;;10.98;;
35969;SDS011;22448;51.298;6.430;2024-02-26T08:56:50;16.90;;;10.95;;
35969;SDS011;22448;51.298;6.430;2024-02-26T08:59:18;17.00;;;10.18;;
35969;SDS011;22448;51.298;6.430;2024-02-26T09:01:48;14.60;;;10.55;;
35969;SDS011;22448;51.298;6.430;2024-02-26T09:04:16;17.50;;;10.77;;
35969;SDS011;22448;51.298;6.430;2024-02-26T09:06:43;16.33;;;10.15;;
35969;SDS011;22448;51.298;6.430;2024-02-26T09:09:10;19.20;;;9.05;;
35969;SDS011;22448;51.298;6.430;2024-02-26T09:11:37;16.30;;;9.82;;
35969;SDS011;22448;51.298;6.430;2024-02-26T09:14:05;20.25;;;13.45;;
35969;SDS011;22448;51.298;6.430;2024-02-26T09:16:32;15.88;;;9.40;;
35969;SDS011;22448;51.298;6.430;2024-02-26T09:18:59;14.23;;;9.60;;
35969;SDS011;22448;51.298;6.430;2024-02-26T09:21:26;14.57;;;8.73;;
35969;SDS011;22448;51.298;6.430;2024-02-26T09:23:54;14.85;;;8.68;;
35969;SDS011;22448;51.298;6.430;2024-02-26T09:26:21;12.20;;;8.85;;
35969;SDS011;22448;51.298;6.430;2024-02-26T09:28:48;15.10;;;8.50;;
35969;SDS011;22448;51.298;6.430;2024-02-26T09:31:17;18.13;;;9.40;;
35969;SDS011;22448;51.298;6.430;2024-02-26T09:33:44;16.83;;;8.80;;
35969;SDS011;22448;51.298;6.430;2024-02-26T09:36:12;18.10;;;8.85;;
35969;SDS011;22448;51.298;6.430;2024-02-26T09:38:40;13.45;;;8.70;;
35969;SDS011;22448;51.298;6.430;2024-02-26T09:41:22;13.88;;;8.27;;
35969;SDS011;22448;51.298;6.430;2024-02-26T09:43:49;13.55;;;9.15;;
35969;SDS011;22448;51.298;6.430;2024-02-26T09:46:22;20.02;;;10.20;;
35969;SDS011;22448;51.298;6.430;2024-02-26T09:48:51;15.07;;;8.93;;
35969;SDS011;22448;51.298;6.430;2024-02-26T09:51:18;14.38;;;8.32;;
35969;SDS011;22448;51.298;6.430;2024-02-26T09:53:49;13.30;;;8.43;;
35969;SDS011;22448;51.298;6.430;2024-02-26T09:56:19;14.65;;;9.35;;
35969;SDS011;22448;51.298;6.430;2024-02-26T09:58:46;15.27;;;8.93;;
35969;SDS011;22448;51.298;6.430;2024-02-26T10:01:19;12.82;;;8.50;;
35969;SDS011;22448;51.298;6.430;2024-02-26T10:03:56;13.48;;;8.82;;
35969;SDS011;22448;51.298;6.430;2024-02-26T10:06:27;17.73;;;9.13;;
35969;SDS011;22448;51.298;6.430;2024-02-26T10:08:55;31.35;;;13.63;;
35969;SDS011;22448;51.298;6.430;2024-02-26T10:11:25;14.75;;;10.23;;
35969;SDS011;22448;51.298;6.430;2024-02-26T10:13:53;19.25;;;11.88;;
35969;SDS011;22448;51.298;6.430;2024-02-26T10:16:20;23.63;;;12.13;;
35969;SDS011;22448;51.298;6.430;2024-02-26T10:18:51;20.23;;;10.80;;
35969;SDS011;22448;51.298;6.430;2024-02-26T10:21:26;15.52;;;10.63;;
35969;SDS011;22448;51.298;6.430;2024-02-26T10:23:53;17.00;;;11.13;;
35969;SDS011;22448;51.298;6.430;2024-02-26T10:26:20;17.13;;;10.60;;
35969;SDS011;22448;51.298;6.430;2024-02-26T10:28:48;16.35;;;10.73;;
35969;SDS011;22448;51.298;6.430;2024-02-26T10:31:21;15.18;;;10.93;;
35969;SDS011;22448;51.298;6.430;2024-02-26T10:33:48;17.95;;;9.77;;
35969;SDS011;22448;51.298;6.430;2024-02-26T10:36:16;23.35;;;10.27;;
35969;SDS011;22448;51.298;6.430;2024-02-26T10:38:43;16.33;;;9.60;;
35969;SDS011;22448;51.298;6.430;2024-02-26T10:41:14;16.95;;;11.30;;
35969;SDS011;22448;51.298;6.430;2024-02-26T10:43:42;15.70;;;10.50;;
35969;SDS011;22448;51.298;6.430;2024-02-26T10:46:10;17.45;;;9.95;;
35969;SDS011;22448;51.298;6.430;2024-02-26T10:48:37;14.55;;;9.57;;
35969;SDS011;22448;51.298;6.430;2024-02-26T10:51:04;18.38;;;10.98;;
35969;SDS011;22448;51.298;6.430;2024-02-26T10:53:32;15.70;;;9.35;;
35969;SDS011;22448;51.298;6.430;2024-02-26T10:56:02;16.52;;;9.52;;
35969;SDS011;22448;51.298;6.430;2024-02-26T10:58:31;17.02;;;9.65;;
35969;SDS011;22448;51.298;6.430;2024-02-26T11:00:59;14.18;;;9.02;;
35969;SDS011;22448;51.298;6.430;2024-02-26T11:03:27;16.95;;;9.35;;
35969;SDS011;22448;51.298;6.430;2024-02-26T11:05:58;20.27;;;10.52;;
35969;SDS011;22448;51.298;6.430;2024-02-26T11:08:27;18.20;;;10.00;;
35969;SDS011;22448;51.298;6.430;2024-02-26T11:10:56;18.42;;;9.35;;
35969;SDS011;22448;51.298;6.430;2024-02-26T11:13:26;17.77;;;9.85;;
35969;SDS011;22448;51.298;6.430;2024-02-26T11:15:59;22.80;;;10.90;;
35969;SDS011;22448;51.298;6.430;2024-02-26T11:18:27;17.02;;;10.43;;
35969;SDS011;22448;51.298;6.430;2024-02-26T11:20:55;21.80;;;11.32;;
35969;SDS011;22448;51.298;6.430;2024-02-26T11:23:24;26.92;;;12.25;;
35969;SDS011;22448;51.298;6.430;2024-02-26T11:25:52;21.38;;;11.63;;
35969;SDS011;22448;51.298;6.430;2024-02-26T11:28:21;22.10;;;11.63;;
35969;SDS011;22448;51.298;6.430;2024-02-26T11:30:50;21.60;;;10.68;;
35969;SDS011;22448;51.298;6.430;2024-02-26T11:33:19;19.90;;;10.23;;
35969;SDS011;22448;51.298;6.430;2024-02-26T11:35:47;15.25;;;9.15;;
35969;SDS011;22448;51.298;6.430;2024-02-26T11:38:19;17.45;;;9.23;;
35969;SDS011;22448;51.298;6.430;2024-02-26T11:40:48;18.13;;;10.25;;
35969;SDS011;22448;51.298;6.430;2024-02-26T11:43:16;16.70;;;10.65;;
35969;SDS011;22448;51.298;6.430;2024-02-26T11:45:47;17.95;;;9.88;;
35969;SDS011;22448;51.298;6.430;2024-02-26T11:48:23;15.25;;;9.07;;
35969;SDS011;22448;51.298;6.430;2024-02-26T11:50:53;14.75;;;9.55;;
35969;SDS011;22448;51.298;6.430;2024-02-26T11:53:22;18.50;;;9.82;;
35969;SDS011;22448;51.298;6.430;2024-02-26T11:56:35;17.95;;;9.65;;
35969;SDS011;22448;51.298;6.430;2024-02-26T11:58:43;15.98;;;9.15;;
35969;SDS011;22448;51.298;6.430;2024-02-26T12:04:04;12.35;;;8.73;;
35969;SDS011;22448;51.298;6.430;2024-02-26T12:09:37;19.90;;;10.90;;
35969;SDS011;22448;51.298;6.430;2024-02-26T12:14:41;17.50;;;9.18;;
35969;SDS011;22448;51.298;6.430;2024-02-26T12:17:19;16.73;;;9.80;;
35969;SDS011;22448;51.298;6.430;2024-02-26T12:19:50;19.75;;;10.45;;
35969;SDS011;22448;51.298;6.430;2024-02-26T12:22:20;19.23;;;9.70;;
35969;SDS011;22448;51.298;6.430;2024-02-26T12:24:48;18.92;;;10.43;;
35969;SDS011;22448;51.298;6.430;2024-02-26T12:27:25;17.52;;;9.43;;
35969;SDS011;22448;51.298;6.430;2024-02-26T12:29:52;12.02;;;7.80;;
35969;SDS011;22448;51.298;6.430;2024-02-26T12:32:20;13.80;;;7.63;;
35969;SDS011;22448;51.298;6.430;2024-02-26T12:34:47;12.02;;;8.05;;
35969;SDS011;22448;51.298;6.430;2024-02-26T12:37:14;15.18;;;9.25;;
35969;SDS011;22448;51.298;6.430;2024-02-26T12:39:42;13.68;;;8.73;;
35969;SDS011;22448;51.298;6.430;2024-02-26T12:42:10;14.82;;;8.68;;
35969;SDS011;22448;51.298;6.430;2024-02-26T12:44:37;16.75;;;9.50;;
35969;SDS011;22448;51.298;6.430;2024-02-26T12:47:04;13.70;;;9.23;;
35969;SDS011;22448;51.298;6.430;2024-02-26T12:49:31;15.80;;;9.60;;
35969;SDS011;22448;51.298;6.430;2024-02-26T12:51:59;20.20;;;9.80;;
35969;SDS011;22448;51.298;6.430;2024-02-26T12:54:33;17.52;;;10.50;;
35969;SDS011;22448;51.298;6.430;2024-02-26T12:57:01;19.85;;;11.30;;
35969;SDS011;22448;51.298;6.430;2024-02-26T12:59:30;21.23;;;10.95;;
35969;SDS011;22448;51.298;6.430;2024-02-26T13:01:58;19.20;;;11.40;;
35969;SDS011;22448;51.298;6.430;2024-02-26T13:04:26;19.33;;;10.55;;
35969;SDS011;22448;51.298;6.430;2024-02-26T13:06:56;19.50;;;11.63;;
35969;SDS011;22448;51.298;6.430;2024-02-26T13:09:33;19.65;;;12.00;;
35969;SDS011;22448;51.298;6.430;2024-02-26T13:12:04;26.40;;;13.93;;
35969;SDS011;22448;51.298;6.430;2024-02-26T13:14:33;25.65;;;13.07;;
35969;SDS011;22448;51.298;6.430;2024-02-26T13:17:02;23.17;;;14.15;;
35969;SDS011;22448;51.298;6.430;2024-02-26T13:19:30;24.60;;;14.77;;
35969;SDS011;22448;51.298;6.430;2024-02-26T13:22:15;23.17;;;13.55;;
35969;SDS011;22448;51.298;6.430;2024-02-26T13:24:53;27.40;;;13.98;;
35969;SDS011;22448;51.298;6.430;2024-02-26T13:27:22;21.65;;;13.45;;
35969;SDS011;22448;51.298;6.430;2024-02-26T13:32:29;20.45;;;13.18;;
35969;SDS011;22448;51.298;6.430;2024-02-26T13:35:08;25.02;;;13.32;;
35969;SDS011;22448;51.298;6.430;2024-02-26T13:37:37;19.67;;;12.38;;
35969;SDS011;22448;51.298;6.430;2024-02-26T13:40:08;24.60;;;12.30;;
35969;SDS011;22448;51.298;6.430;2024-02-26T13:42:36;19.05;;;11.52;;
35969;SDS011;22448;51.298;6.430;2024-02-26T13:45:04;20.40;;;13.23;;
35969;SDS011;22448;51.298;6.430;2024-02-26T13:47:35;21.55;;;12.95;;
35969;SDS011;22448;51.298;6.430;2024-02-26T13:50:03;24.88;;;13.23;;
35969;SDS011;22448;51.298;6.430;2024-02-26T13:52:30;26.35;;;12.63;;
35969;SDS011;22448;51.298;6.430;2024-02-26T13:54:59;22.98;;;11.52;;
35969;SDS011;22448;51.298;6.430;2024-02-26T13:57:26;23.45;;;12.30;;
35969;SDS011;22448;51.298;6.430;2024-02-26T13:59:54;23.10;;;11.07;;
35969;SDS011;22448;51.298;6.430;2024-02-26T14:02:21;25.38;;;12.23;;
35969;SDS011;22448;51.298;6.430;2024-02-26T14:04:48;17.67;;;10.57;;
35969;SDS011;22448;51.298;6.430;2024-02-26T14:07:15;18.67;;;10.23;;
35969;SDS011;22448;51.298;6.430;2024-02-26T14:09:45;17.67;;;10.93;;
35969;SDS011;22448;51.298;6.430;2024-02-26T14:12:16;17.60;;;10.05;;
35969;SDS011;22448;51.298;6.430;2024-02-26T14:14:47;15.82;;;10.02;;
35969;SDS011;22448;51.298;6.430;2024-02-26T14:17:15;19.70;;;10.80;;
35969;SDS011;22448;51.298;6.430;2024-02-26T14:19:42;16.98;;;10.00;;
35969;SDS011;22448;51.298;6.430;2024-02-26T14:22:11;15.10;;;10.30;;
35969;SDS011;22448;51.298;6.430;2024-02-26T14:24:38;17.60;;;9.38;;
35969;SDS011;22448;51.298;6.430;2024-02-26T14:27:07;15.38;;;9.90;;
35969;SDS011;22448;51.298;6.430;2024-02-26T14:29:36;13.60;;;9.13;;
35969;SDS011;22448;51.298;6.430;2024-02-26T14:32:03;14.07;;;8.90;;
35969;SDS011;22448;51.298;6.430;2024-02-26T14:34:30;14.85;;;8.52;;
35969;SDS011;22448;51.298;6.430;2024-02-26T14:36:58;12.95;;;8.25;;
35969;SDS011;22448;51.298;6.430;2024-02-26T14:39:24;13.20;;;8.18;;
35969;SDS011;22448;51.298;6.430;2024-02-26T14:41:51;11.70;;;7.18;;
35969;SDS011;22448;51.298;6.430;2024-02-26T14:44:22;9.43;;;6.95;;
35969;SDS011;22448;51.298;6.430;2024-02-26T14:46:49;9.07;;;6.85;;
35969;SDS011;22448;51.298;6.430;2024-02-26T14:49:16;11.98;;;7.68;;
35969;SDS011;22448;51.298;6.430;2024-02-26T14:51:44;11.32;;;7.07;;
35969;SDS011;22448;51.298;6.430;2024-02-26T14:54:11;13.07;;;6.72;;
35969;SDS011;22448;51.298;6.430;2024-02-26T14:56:39;8.00;;;6.28;;
35969;SDS011;22448;51.298;6.430;2024-02-26T14:59:06;11.05;;;5.85;;
35969;SDS011;22448;51.298;6.430;2024-02-26T15:01:33;9.07;;;6.03;;
35969;SDS011;22448;51.298;6.430;2024-02-26T15:04:00;10.25;;;6.32;;
35969;SDS011;22448;51.298;6.430;2024-02-26T15:06:27;8.25;;;6.03;;
35969;SDS011;22448;51.298;6.430;2024-02-26T15:08:55;11.45;;;6.07;;
35969;SDS011;22448;51.298;6.430;2024-02-26T15:11:22;8.35;;;6.13;;
35969;SDS011;22448;51.298;6.430;2024-02-26T15:13:49;10.05;;;7.10;;
35969;SDS011;22448;51.298;6.430;2024-02-26T15:16:20;12.60;;;6.63;;
35969;SDS011;22448;51.298;6.430;2024-02-26T15:18:47;9.15;;;6.22;;
35969;SDS011;22448;51.298;6.430;2024-02-26T15:21:14;10.40;;;6.22;;
35969;SDS011;22448;51.298;6.430;2024-02-26T15:23:44;10.30;;;6.53;;
35969;SDS011;22448;51.298;6.430;2024-02-26T15:26:30;10.65;;;6.13;;
35969;SDS011;22448;51.298;6.430;2024-02-26T15:28:56;10.88;;;7.25;;
35969;SDS011;22448;51.298;6.430;2024-02-26T15:31:24;12.40;;;7.13;;
35969;SDS011;22448;51.298;6.430;2024-02-26T15:33:50;11.25;;;7.20;;
35969;SDS011;22448;51.298;6.430;2024-02-26T15:36:18;9.10;;;7.07;;
35969;SDS011;22448;51.298;6.430;2024-02-26T15:38:45;9.30;;;7.22;;
35969;SDS011;22448;51.298;6.430;2024-02-26T15:41:12;11.15;;;7.30;;
35969;SDS011;22448;51.298;6.430;2024-02-26T15:43:40;11.98;;;8.15;;
35969;SDS011;22448;51.298;6.430;2024-02-26T15:46:07;14.00;;;8.73;;
35969;SDS011;22448;51.298;6.430;2024-02-26T15:48:37;15.48;;;9.13;;
35969;SDS011;22448;51.298;6.430;2024-02-26T15:51:04;14.77;;;8.80;;
35969;SDS011;22448;51.298;6.430;2024-02-26T15:53:32;13.68;;;8.85;;
35969;SDS011;22448;51.298;6.430;2024-02-26T15:55:59;16.45;;;9.32;;
35969;SDS011;22448;51.298;6.430;2024-02-26T15:58:26;20.05;;;10.45;;
35969;SDS011;22448;51.298;6.430;2024-02-26T16:00:53;19.35;;;9.82;;
35969;SDS011;22448;51.298;6.430;2024-02-26T16:03:24;17.02;;;9.38;;
35969;SDS011;22448;51.298;6.430;2024-02-26T16:05:51;17.98;;;10.82;;
35969;SDS011;22448;51.298;6.430;2024-02-26T16:08:19;17.60;;;10.88;;
35969;SDS011;22448;51.298;6.430;2024-02-26T16:10:48;19.50;;;11.73;;
35969;SDS011;22448;51.298;6.430;2024-02-26T16:13:15;20.33;;;11.45;;
35969;SDS011;22448;51.298;6.430;2024-02-26T16:16:09;19.10;;;12.25;;
35969;SDS011;22448;51.298;6.430;2024-02-26T16:18:41;22.85;;;12.98;;
35969;SDS011;22448;51.298;6.430;2024-02-26T16:21:09;21.80;;;13.27;;
35969;SDS011;22448;51.298;6.430;2024-02-26T16:23:37;20.80;;;12.40;;
35969;SDS011;22448;51.298;6.430;2024-02-26T16:26:04;21.92;;;12.63;;
35969;SDS011;22448;51.298;6.430;2024-02-26T16:28:31;19.52;;;12.60;;
35969;SDS011;22448;51.298;6.430;2024-02-26T16:30:58;23.00;;;13.73;;
35969;SDS011;22448;51.298;6.430;2024-02-26T16:33:26;22.15;;;13.65;;
35969;SDS011;22448;51.298;6.430;2024-02-26T16:35:53;24.27;;;14.55;;
35969;SDS011;22448;51.298;6.430;2024-02-26T16:38:21;27.13;;;14.77;;
35969;SDS011;22448;51.298;6.430;2024-02-26T16:40:48;23.27;;;14.13;;
35969;SDS011;22448;51.298;6.430;2024-02-26T16:43:15;23.88;;;14.30;;
35969;SDS011;22448;51.298;6.430;2024-02-26T16:45:42;23.80;;;14.50;;
35969;SDS011;22448;51.298;6.430;2024-02-26T16:48:09;23.58;;;14.68;;
35969;SDS011;22448;51.298;6.430;2024-02-26T16:50:37;26.13;;;15.00;;
35969;SDS011;22448;51.298;6.430;2024-02-26T16:53:04;23.65;;;15.07;;
35969;SDS011;22448;51.298;6.430;2024-02-26T16:55:31;23.60;;;15.05;;
35969;SDS011;22448;51.298;6.430;2024-02-26T16:57:58;25.20;;;15.20;;
35969;SDS011;22448;51.298;6.430;2024-02-26T17:00:24;22.83;;;14.27;;
35969;SDS011;22448;51.298;6.430;2024-02-26T17:02:51;22.60;;;14.82;;
35969;SDS011;22448;51.298;6.430;2024-02-26T17:05:19;26.25;;;15.18;;
35969;SDS011;22448;51.298;6.430;2024-02-26T17:07:46;30.40;;;15.65;;
35969;SDS011;22448;51.298;6.430;2024-02-26T17:10:13;25.05;;;15.77;;
35969;SDS011;22448;51.298;6.430;2024-02-26T17:12:41;27.27;;;15.45;;
35969;SDS011;22448;51.298;6.430;2024-02-26T17:15:09;26.50;;;15.35;;
35969;SDS011;22448;51.298;6.430;2024-02-26T17:17:36;26.25;;;14.68;;
35969;SDS011;22448;51.298;6.430;2024-02-26T17:20:03;27.60;;;15.98;;
35969;SDS011;22448;51.298;6.430;2024-02-26T17:22:31;25.95;;;15.07;;
35969;SDS011;22448;51.298;6.430;2024-02-26T17:24:58;22.75;;;14.27;;
35969;SDS011;22448;51.298;6.430;2024-02-26T17:27:25;31.02;;;16.88;;
35969;SDS011;22448;51.298;6.430;2024-02-26T17:29:52;23.20;;;14.27;;
35969;SDS011;22448;51.298;6.430;2024-02-26T17:32:20;26.45;;;14.77;;
35969;SDS011;22448;51.298;6.430;2024-02-26T17:34:46;28.58;;;15.57;;
35969;SDS011;22448;51.298;6.430;2024-02-26T17:37:14;23.90;;;14.93;;
35969;SDS011;22448;51.298;6.430;2024-02-26T17:39:42;24.40;;;13.55;;
35969;SDS011;22448;51.298;6.430;2024-02-26T17:42:09;24.85;;;15.05;;
35969;SDS011;22448;51.298;6.430;2024-02-26T17:44:39;20.83;;;14.73;;
35969;SDS011;22448;51.298;6.430;2024-02-26T17:47:06;22.80;;;14.32;;
35969;SDS011;22448;51.298;6.430;2024-02-26T17:49:33;28.38;;;14.93;;
35969;SDS011;22448;51.298;6.430;2024-02-26T17:52:01;27.15;;;15.00;;
35969;SDS011;22448;51.298;6.430;2024-02-26T17:54:28;24.67;;;15.27;;
35969;SDS011;22448;51.298;6.430;2024-02-26T17:56:55;27.77;;;15.65;;
35969;SDS011;22448;51.298;6.430;2024-02-26T17:59:23;24.35;;;14.50;;
35969;SDS011;22448;51.298;6.430;2024-02-26T18:01:50;24.30;;;14.63;;
35969;SDS011;22448;51.298;6.430;2024-02-26T18:04:17;24.92;;;15.85;;
35969;SDS011;22448;51.298;6.430;2024-02-26T18:06:45;24.67;;;15.07;;
35969;SDS011;22448;51.298;6.430;2024-02-26T18:09:12;21.42;;;14.77;;
35969;SDS011;22448;51.298;6.430;2024-02-26T18:11:44;24.40;;;15.35;;
35969;SDS011;22448;51.298;6.430;2024-02-26T18:14:11;26.92;;;17.55;;
35969;SDS011;22448;51.298;6.430;2024-02-26T18:16:39;25.35;;;16.42;;
35969;SDS011;22448;51.298;6.430;2024-02-26T18:19:06;27.08;;;19.25;;
35969;SDS011;22448;51.298;6.430;2024-02-26T18:21:33;25.00;;;16.33;;
35969;SDS011;22448;51.298;6.430;2024-02-26T18:24:00;29.02;;;17.15;;
35969;SDS011;22448;51.298;6.430;2024-02-26T18:26:28;28.05;;;18.02;;
35969;SDS011;22448;51.298;6.430;2024-02-26T18:28:56;28.63;;;17.27;;
35969;SDS011;22448;51.298;6.430;2024-02-26T18:31:23;26.38;;;16.55;;
35969;SDS011;22448;51.298;6.430;2024-02-26T18:33:50;29.45;;;17.73;;
35969;SDS011;22448;51.298;6.430;2024-02-26T18:36:18;26.33;;;17.75;;
35969;SDS011;22448;51.298;6.430;2024-02-26T18:38:50;31.20;;;18.20;;
35969;SDS011;22448;51.298;6.430;2024-02-26T18:41:18;28.95;;;18.02;;
35969;SDS011;22448;51.298;6.430;2024-02-26T18:43:47;27.60;;;18.23;;
35969;SDS011;22448;51.298;6.430;2024-02-26T18:46:15;29.00;;;17.20;;
35969;SDS011;22448;51.298;6.430;2024-02-26T18:48:43;29.88;;;17.48;;